createdAt,value
2023-01-20T00:03:18.945Z,1.20
2023-01-20T00:08:20.555Z,1.23
2023-01-20T00:13:22.017Z,1.17
2023-01-20T00:18:23.510Z,1.16
2023-01-20T00:23:24.936Z,1.09
2023-01-20T00:28:26.398Z,1.08
2023-01-20T00:33:27.851Z,1.11
2023-01-20T00:38:29.251Z,1.10
2023-01-20T00:43:31.563Z,1.12
2023-01-20T00:48:33.641Z,1.11
2023-01-20T00:53:36.176Z,1.10
2023-01-20T00:58:37.637Z,1.06
2023-01-20T01:03:39.121Z,1.00
2023-01-20T01:08:41.353Z,0.96
2023-01-20T01:13:42.925Z,0.80
2023-01-20T01:18:44.424Z,0.81
2023-01-20T01:23:46.274Z,0.69
2023-01-20T01:28:49.100Z,0.76
2023-01-20T01:33:50.678Z,0.74
2023-01-20T01:38:57.662Z,0.72
2023-01-20T01:44:01.776Z,0.71
2023-01-20T01:49:26.477Z,0.68
2023-01-20T01:54:35.434Z,0.67
2023-01-20T01:59:37.982Z,0.65
2023-01-20T02:04:39.393Z,0.58
2023-01-20T02:09:41.328Z,0.61
2023-01-20T02:14:52.793Z,0.59
2023-01-20T02:20:15.894Z,0.62
2023-01-20T02:25:37.984Z,0.57
2023-01-20T02:30:55.417Z,0.63
2023-01-20T02:36:32.326Z,0.61
2023-01-20T02:41:39.169Z,0.63
2023-01-20T02:46:49.702Z,0.66
2023-01-20T02:52:00.041Z,0.67
2023-01-20T02:57:03.998Z,0.71
2023-01-20T03:02:14.347Z,0.71
2023-01-20T03:07:18.170Z,0.70
2023-01-20T03:12:22.345Z,0.72
2023-01-20T03:17:24.011Z,0.71
2023-01-20T03:22:25.564Z,0.67
2023-01-20T03:27:27.243Z,0.67
2023-01-20T03:32:29.423Z,0.63
2023-01-20T03:37:30.898Z,0.53
2023-01-20T03:42:39.208Z,0.41
2023-01-20T03:47:43.385Z,0.50
2023-01-20T03:52:52.992Z,0.49
2023-01-20T03:57:54.319Z,0.52
2023-01-20T04:02:57.413Z,0.52
2023-01-20T04:08:03.584Z,0.47
2023-01-20T04:13:05.185Z,0.42
2023-01-20T04:18:17.001Z,0.35
2023-01-20T04:23:28.442Z,0.28
2023-01-20T04:28:30.137Z,0.22
2023-01-20T04:33:31.553Z,0.21
2023-01-20T04:38:33.008Z,0.11
2023-01-20T04:43:34.447Z,0.09
2023-01-20T04:48:35.869Z,0.02
2023-01-20T04:53:37.291Z,-0.04
2023-01-20T04:58:39.227Z,-0.11
2023-01-20T05:03:40.677Z,-0.13
2023-01-20T05:08:42.157Z,-0.09
2023-01-20T05:13:43.734Z,-0.04
2023-01-20T05:18:45.139Z,-0.02
2023-01-20T05:23:46.563Z,0.02
2023-01-20T05:28:48.026Z,0.08
2023-01-20T05:33:49.452Z,0.14
2023-01-20T05:38:50.915Z,0.18
2023-01-20T05:43:55.790Z,0.26
2023-01-20T05:48:57.228Z,0.30
2023-01-20T05:53:58.701Z,0.33
2023-01-20T05:59:00.341Z,0.40
2023-01-20T06:04:01.818Z,0.47
2023-01-20T06:09:03.504Z,0.42
2023-01-20T06:14:05.073Z,0.42
2023-01-20T06:19:06.501Z,0.33
2023-01-20T06:24:08.008Z,0.30
2023-01-20T06:29:09.474Z,0.24
2023-01-20T06:34:12.118Z,0.20
2023-01-20T06:39:13.658Z,0.10
2023-01-20T06:44:15.543Z,0.08
2023-01-20T06:49:17.305Z,0.03
2023-01-20T06:54:18.753Z,0.03
2023-01-20T06:59:20.202Z,-0.03
2023-01-20T07:04:21.658Z,0.07
2023-01-20T07:09:23.080Z,0.00
2023-01-20T07:14:24.588Z,0.00
2023-01-20T07:19:25.995Z,0.01
2023-01-20T07:24:27.410Z,-0.02
2023-01-20T07:29:28.953Z,-0.07
2023-01-20T07:34:30.433Z,0.08
2023-01-20T07:39:31.920Z,0.17
2023-01-20T07:44:33.346Z,0.20
2023-01-20T07:49:34.746Z,0.34
2023-01-20T07:54:36.165Z,0.55
2023-01-20T07:59:37.630Z,0.79
2023-01-20T08:04:39.064Z,1.00
2023-01-20T08:09:41.681Z,1.24
2023-01-20T08:14:43.088Z,1.38
2023-01-20T08:19:44.502Z,1.59
2023-01-20T08:24:45.941Z,1.78
2023-01-20T08:29:47.585Z,2.08
2023-01-20T08:34:49.024Z,1.96
2023-01-20T08:39:50.484Z,1.87
2023-01-20T08:44:53.336Z,2.07
2023-01-20T08:49:54.874Z,2.34
2023-01-20T08:54:56.505Z,2.40
2023-01-20T08:59:58.042Z,2.54
2023-01-20T09:04:59.581Z,2.51
2023-01-20T09:10:01.094Z,2.40
2023-01-20T09:15:04.962Z,2.26
2023-01-20T09:20:07.230Z,2.19
2023-01-20T09:25:11.682Z,2.25
2023-01-20T09:30:13.626Z,2.32
2023-01-20T09:35:15.540Z,2.50
2023-01-20T09:40:44.775Z,2.76
2023-01-20T09:46:03.265Z,3.10
2023-01-20T09:51:33.645Z,3.35
2023-01-20T09:56:41.488Z,3.72
2023-01-20T10:01:47.294Z,3.97
2023-01-20T10:06:53.074Z,3.91
2023-01-20T10:12:02.780Z,3.60
2023-01-20T10:17:16.081Z,3.81
2023-01-20T10:22:32.230Z,3.86
2023-01-20T10:27:37.337Z,3.83
2023-01-20T10:32:45.874Z,4.04
2023-01-20T10:37:47.308Z,4.15
2023-01-20T10:42:55.556Z,4.06
2023-01-20T10:48:20.362Z,4.00
2023-01-20T10:53:27.859Z,3.95
2023-01-20T10:58:36.539Z,3.87
2023-01-20T11:03:42.838Z,3.89
2023-01-20T11:08:44.518Z,3.89
2023-01-20T11:13:46.345Z,3.93
2023-01-20T11:19:00.880Z,3.98
2023-01-20T11:24:22.177Z,4.01
2023-01-20T11:29:31.760Z,3.89
2023-01-20T11:34:35.213Z,3.74
2023-01-20T11:39:58.989Z,3.77
2023-01-20T11:45:21.158Z,3.69
2023-01-20T11:50:29.912Z,3.86
2023-01-20T11:55:31.416Z,3.99
2023-01-20T12:00:43.929Z,3.92
2023-01-20T12:06:17.461Z,3.82
2023-01-20T12:11:25.630Z,3.51
2023-01-20T12:16:30.720Z,3.40
2023-01-20T12:21:38.463Z,3.31
2023-01-20T12:26:40.057Z,3.21
2023-01-20T12:31:43.521Z,3.37
2023-01-20T12:37:08.301Z,3.43
2023-01-20T12:42:09.845Z,3.60
2023-01-20T12:47:26.476Z,3.75
2023-01-20T12:52:42.913Z,3.80
2023-01-20T12:57:58.081Z,3.88
2023-01-20T13:03:30.062Z,3.92
2023-01-20T13:08:40.931Z,3.96
2023-01-20T13:14:07.307Z,4.01
2023-01-20T13:19:24.464Z,3.92
2023-01-20T13:24:29.356Z,4.01
2023-01-20T13:29:36.604Z,3.84
2023-01-20T13:34:40.024Z,3.88
2023-01-20T13:39:45.187Z,3.95
2023-01-20T13:45:12.227Z,3.82
2023-01-20T13:50:41.532Z,3.88
2023-01-20T13:55:45.559Z,3.89
2023-01-20T14:00:53.018Z,3.93
2023-01-20T14:05:55.901Z,3.91
2023-01-20T14:11:18.312Z,3.72
2023-01-20T14:16:30.209Z,3.71
2023-01-20T14:21:39.960Z,3.79
2023-01-20T14:26:41.427Z,3.68
2023-01-20T14:31:45.799Z,3.71
2023-01-20T14:36:48.379Z,3.61
2023-01-20T14:41:57.726Z,3.68
2023-01-20T14:47:02.871Z,3.50
2023-01-20T14:52:05.249Z,3.43
2023-01-20T14:57:24.976Z,3.30
2023-01-20T15:02:32.490Z,3.32
2023-01-20T15:07:35.749Z,3.50
2023-01-20T15:12:52.192Z,3.33
2023-01-20T15:18:27.164Z,3.33
2023-01-20T15:23:34.813Z,3.17
2023-01-20T15:28:44.157Z,3.13
2023-01-20T15:33:45.584Z,3.11
2023-01-20T15:38:47.050Z,2.96
2023-01-20T15:43:49.333Z,2.91
2023-01-20T15:48:50.762Z,2.97
2023-01-20T15:53:52.205Z,2.75
2023-01-20T15:58:53.680Z,2.74
2023-01-20T16:03:56.820Z,2.82
2023-01-20T16:09:00.791Z,2.73
2023-01-20T16:14:02.202Z,2.67
2023-01-20T16:19:04.765Z,2.54
2023-01-20T16:24:06.998Z,2.44
2023-01-20T16:29:08.980Z,2.48
2023-01-20T16:34:10.557Z,2.50
2023-01-20T16:39:11.976Z,2.34
2023-01-20T16:44:13.530Z,2.33
2023-01-20T16:49:15.060Z,2.37
2023-01-20T16:54:16.552Z,2.39
2023-01-20T16:59:18.021Z,2.32
2023-01-20T17:04:19.472Z,2.32
2023-01-20T17:09:21.010Z,2.21
2023-01-20T17:14:22.470Z,2.23
2023-01-20T17:19:24.305Z,2.28
2023-01-20T17:24:26.541Z,2.16
2023-01-20T17:29:27.960Z,2.23
2023-01-20T17:34:29.374Z,2.18
2023-01-20T17:39:30.796Z,2.19
2023-01-20T17:44:32.211Z,2.15
2023-01-20T17:49:33.731Z,2.22
2023-01-20T17:54:35.333Z,2.25
2023-01-20T17:59:36.791Z,2.29
2023-01-20T18:04:38.623Z,2.35
2023-01-20T18:09:42.146Z,2.21
2023-01-20T18:14:44.486Z,2.36
2023-01-20T18:19:47.214Z,2.40
2023-01-20T18:24:48.624Z,2.16
2023-01-20T18:29:50.279Z,2.16
2023-01-20T18:34:51.759Z,2.24
2023-01-20T18:39:53.207Z,2.22
2023-01-20T18:44:54.717Z,1.97
2023-01-20T18:49:56.177Z,2.03
2023-01-20T18:54:57.623Z,2.14
2023-01-20T18:59:59.127Z,2.23
2023-01-20T19:05:00.605Z,2.44
2023-01-20T19:10:02.082Z,2.43
2023-01-20T19:15:03.911Z,2.30
2023-01-20T19:20:06.679Z,2.23
2023-01-20T19:25:08.527Z,2.07
2023-01-20T19:30:10.946Z,2.08
2023-01-20T19:35:12.565Z,2.19
2023-01-20T19:40:14.479Z,2.07
2023-01-20T19:45:16.514Z,2.00
2023-01-20T19:50:18.911Z,2.05
2023-01-20T19:55:20.524Z,1.98
2023-01-20T20:00:22.066Z,1.95
2023-01-20T20:05:23.538Z,2.13
2023-01-20T20:10:24.954Z,2.17
2023-01-20T20:15:26.445Z,1.88
2023-01-20T20:20:27.849Z,1.89
2023-01-20T20:25:29.281Z,1.95
2023-01-20T20:30:30.772Z,1.86
2023-01-20T20:35:35.881Z,1.84
2023-01-20T20:40:37.426Z,1.78
2023-01-20T20:45:40.207Z,1.77
2023-01-20T20:50:42.014Z,1.79
2023-01-20T20:55:43.473Z,1.70
2023-01-20T21:00:49.498Z,1.50
2023-01-20T21:05:50.918Z,1.67
2023-01-20T21:10:52.480Z,1.70
2023-01-20T21:16:03.448Z,1.56
2023-01-20T21:21:07.834Z,1.50
2023-01-20T21:26:12.924Z,1.67
2023-01-20T21:31:16.405Z,1.73
2023-01-20T21:36:17.894Z,1.52
2023-01-20T21:41:20.089Z,1.46
2023-01-20T21:46:21.662Z,1.36
2023-01-20T21:51:41.577Z,1.09
2023-01-20T21:56:43.160Z,0.88
2023-01-20T22:01:44.602Z,1.18
2023-01-20T22:06:46.056Z,0.89
2023-01-20T22:11:47.496Z,0.62
2023-01-20T22:16:48.920Z,0.55
2023-01-20T22:21:50.591Z,0.73
2023-01-20T22:26:52.358Z,0.80
2023-01-20T22:31:55.721Z,0.49
2023-01-20T22:36:57.921Z,0.48
2023-01-20T22:41:59.338Z,0.47
2023-01-20T22:47:00.967Z,0.71
2023-01-20T22:52:02.511Z,0.68
2023-01-20T22:57:04.571Z,0.72
2023-01-20T23:02:06.283Z,0.52
2023-01-20T23:07:07.755Z,0.53
2023-01-20T23:12:09.191Z,0.56
2023-01-20T23:17:10.662Z,0.56
2023-01-20T23:22:12.078Z,0.81
2023-01-20T23:27:14.033Z,0.72
2023-01-20T23:32:15.455Z,0.92
2023-01-20T23:37:17.168Z,0.96
2023-01-20T23:42:18.929Z,0.82
2023-01-20T23:47:20.523Z,0.88
2023-01-20T23:52:22.616Z,1.00
2023-01-20T23:57:24.685Z,0.94
